Time;durP1;ratioP1;P1;durP2;ratioP2;P2;SDS_P1;SDS_P2;PMS_P1;PMS_P2;Temp;Humidity;BMP_temperature;BMP_pressure;BME280_temperature;BME280_humidity;BME280_pressure;Samples;Min_cycle;Max_cycle;Signal;HPM_P1;HPM_P2
2022/07/04 00:00:12;;;;;;;;;5.00;3.67;;;;;23.67;40.40;101558.03;2087282;28;47540;-57
2022/07/04 00:01:13;;;;;;;;;4.25;4.25;;;;;23.67;40.50;101555.31;2087506;28;46846;-58
2022/07/04 00:02:13;;;;;;;;;5.75;5.75;;;;;23.67;40.20;101557.16;2086477;28;47679;-56
2022/07/04 00:03:14;;;;;;;;;4.75;4.75;;;;;23.65;40.35;101557.25;2095233;28;46828;-56
2022/07/04 00:04:14;;;;;;;;;8.00;8.00;;;;;23.65;40.23;101554.53;2087109;28;48100;-59
2022/07/04 00:05:15;;;;;;;;;3.00;3.00;;;;;23.63;40.15;101555.59;2087598;28;47310;-57
2022/07/04 00:06:16;;;;;;;;;5.00;5.00;;;;;23.61;40.17;101554.81;2087039;28;47525;-57
2022/07/04 00:07:16;;;;;;;;;5.80;5.80;;;;;23.60;40.33;101550.38;2087137;28;47956;-58
2022/07/04 00:08:17;;;;;;;;;6.00;4.50;;;;;23.57;40.12;101559.53;2087505;28;47333;-59
2022/07/04 00:09:17;;;;;;;;;5.25;5.25;;;;;23.56;40.41;101565.91;2091057;28;47555;-57
2022/07/04 00:10:20;;;;;;;;;6.75;6.75;;;;;23.55;40.40;101558.75;2094661;28;47449;-55
2022/07/04 00:11:20;;;;;;;;;7.40;7.40;;;;;23.53;40.33;101560.69;2087334;28;47754;-58
2022/07/04 00:12:21;;;;;;;;;6.25;6.25;;;;;23.53;40.40;101560.69;2087169;28;47324;-57
2022/07/04 00:13:21;;;;;;;;;7.25;7.25;;;;;23.52;40.47;101561.66;2087173;28;47652;-59
2022/07/04 00:14:22;;;;;;;;;1.50;1.50;;;;;23.52;40.84;101563.50;2087481;28;47504;-57
2022/07/04 00:15:22;;;;;;;;;4.00;4.00;;;;;23.51;40.67;101562.63;2087276;28;47512;-57
2022/07/04 00:16:22;;;;;;;;;6.75;6.75;;;;;23.51;40.48;101569.91;2087255;28;47935;-57
2022/07/04 00:17:23;;;;;;;;;5.50;4.50;;;;;23.51;40.68;101569.91;2087234;28;47662;-59
2022/07/04 00:18:23;;;;;;;;;6.00;6.00;;;;;23.49;40.30;101569.97;2087224;28;47797;-59
2022/07/04 00:19:24;;;;;;;;;3.50;3.50;;;;;23.48;40.39;101573.63;2094116;28;47498;-55
2022/07/04 00:20:24;;;;;;;;;4.00;4.00;;;;;23.48;40.54;101568.22;2094491;28;47872;-56
2022/07/04 00:21:24;;;;;;;;;2.25;2.25;;;;;23.45;40.15;101569.28;2086537;28;48181;-55
2022/07/04 00:22:25;;;;;;;;;5.00;4.00;;;;;23.45;40.69;101571.13;2087173;28;47210;-57
2022/07/04 00:23:25;;;;;;;;;3.50;3.50;;;;;23.43;40.35;101570.34;2087084;28;47388;-58
2022/07/04 00:24:26;;;;;;;;;2.75;2.75;;;;;23.41;40.35;101567.75;2087451;28;47289;-57
2022/07/04 00:25:26;;;;;;;;;3.00;3.00;;;;;23.41;40.42;101567.75;2091150;28;47748;-57
2022/07/04 00:26:27;;;;;;;;;1.00;1.00;;;;;23.40;40.48;101560.59;2092749;28;47982;-57
2022/07/04 00:27:28;;;;;;;;;1.00;1.00;;;;;23.40;40.33;101567.84;2087081;28;47586;-57
2022/07/04 00:28:28;;;;;;;;;3.00;1.00;;;;;23.40;40.48;101557.00;2087008;28;47731;-56
2022/07/04 00:29:29;;;;;;;;;2.00;2.00;;;;;23.39;40.55;101560.69;2085715;28;47436;-57
2022/07/04 00:30:29;;;;;;;;;2.00;2.00;;;;;23.39;40.29;101558.84;2085913;28;47302;-58
2022/07/04 00:31:30;;;;;;;;;2.67;1.00;;;;;23.38;40.65;101562.53;2086983;28;47373;-56
2022/07/04 00:32:30;;;;;;;;;0.75;0.75;;;;;23.38;40.15;101558.94;2086843;28;47392;-58
2022/07/04 00:33:31;;;;;;;;;1.67;1.67;;;;;23.37;40.52;101563.47;2086632;28;47472;-56
2022/07/04 00:34:31;;;;;;;;;2.00;2.00;;;;;23.37;40.57;101560.75;2086853;28;47091;-57
2022/07/04 00:35:31;;;;;;;;;1.67;1.67;;;;;23.36;40.35;101563.56;2090833;28;46503;-55
2022/07/04 00:36:32;;;;;;;;;1.67;1.00;;;;;23.34;40.43;101560.94;2093746;28;47467;-58
2022/07/04 00:37:33;;;;;;;;;1.00;1.00;;;;;23.33;40.25;101561.91;2087287;28;47496;-55
2022/07/04 00:38:33;;;;;;;;;1.33;1.33;;;;;23.34;40.72;101560.09;2087345;28;47868;-59
2022/07/04 00:39:34;;;;;;;;;0.33;0.33;;;;;23.34;40.72;101562.78;2086503;28;47428;-56
2022/07/04 00:40:34;;;;;;;;;0.00;0.00;;;;;23.33;40.81;101564.63;2087579;28;47437;-58
2022/07/04 00:41:35;;;;;;;;;0.67;0.67;;;;;23.33;40.64;101563.75;2086948;28;47608;-56
2022/07/04 00:42:35;;;;;;;;;0.00;0.00;;;;;23.32;40.82;101564.72;2087550;28;46764;-58
2022/07/04 00:43:35;;;;;;;;;1.50;1.50;;;;;23.30;40.53;101563.97;2087487;28;47423;-57
2022/07/04 00:44:36;;;;;;;;;0.67;0.67;;;;;23.30;40.82;101566.66;2087541;28;47875;-56
2022/07/04 00:45:36;;;;;;;;;0.50;0.50;;;;;23.27;40.81;101565.03;2087605;28;46218;-55
2022/07/04 00:46:37;;;;;;;;;1.00;1.00;;;;;23.29;40.88;101570.34;2084927;28;47631;-57
2022/07/04 00:47:38;;;;;;;;;0.75;0.75;;;;;23.27;40.92;101567.72;2087310;28;47939;-58
2022/07/04 00:48:38;;;;;;;;;1.67;1.33;;;;;23.27;40.81;101570.44;2087426;28;47586;-58
2022/07/04 00:49:40;;;;;;;;;0.33;0.33;;;;;23.26;41.13;101570.53;2086883;28;47028;-58
2022/07/04 00:50:40;;;;;;;;;0.75;0.75;;;;;23.26;40.96;101567.81;2087229;28;47852;-61
2022/07/04 00:51:42;;;;;;;;;1.33;1.33;;;;;23.25;40.87;101566.97;2091634;28;47857;-60
2022/07/04 00:52:42;;;;;;;;;0.00;0.00;;;;;23.24;40.74;101569.72;2093370;28;47662;-58
2022/07/04 00:53:44;;;;;;;;;1.00;1.00;;;;;23.23;40.79;101570.69;2094364;28;47646;-58
2022/07/04 00:54:45;;;;;;;;;0.75;0.75;;;;;23.21;40.79;101565.38;2095112;28;47876;-56
2022/07/04 00:55:46;;;;;;;;;1.00;0.25;;;;;23.21;40.54;101565.38;2087114;28;47663;-57
2022/07/04 00:56:46;;;;;;;;;2.00;1.67;;;;;23.18;40.63;101566.44;2086927;28;47838;-58
2022/07/04 00:57:47;;;;;;;;;0.00;0.00;;;;;23.18;40.55;101571.00;2087137;28;48004;-58
2022/07/04 00:58:48;;;;;;;;;0.00;0.00;;;;;23.18;40.98;101568.28;2087108;28;47297;-57
2022/07/04 00:59:48;;;;;;;;;2.00;2.00;;;;;23.17;40.83;101566.53;2087200;28;47451;-58
2022/07/04 01:00:49;;;;;;;;;0.00;0.00;;;;;23.15;40.78;101571.19;2087504;28;47670;-59
2022/07/04 01:01:50;;;;;;;;;1.00;0.00;;;;;23.14;40.88;101572.16;2095371;28;47381;-58
2022/07/04 01:02:51;;;;;;;;;0.75;0.75;;;;;23.13;40.91;101571.28;2088916;28;47739;-57
2022/07/04 01:03:52;;;;;;;;;2.00;0.00;;;;;23.13;41.05;101565.00;2086941;28;46671;-57
2022/07/04 01:04:52;;;;;;;;;0.00;0.00;;;;;23.12;40.88;101568.63;2087352;28;47902;-57
2022/07/04 01:05:53;;;;;;;;;0.67;0.67;;;;;23.11;40.81;101558.78;2093935;28;47363;-56
2022/07/04 01:06:53;;;;;;;;;1.75;1.00;;;;;23.10;41.02;101563.31;2094638;28;47986;-56
2022/07/04 01:07:54;;;;;;;;;1.00;1.00;;;;;23.09;41.13;101566.13;2087296;28;47375;-57
2022/07/04 01:08:55;;;;;;;;;0.75;0.00;;;;;23.07;41.02;101558.09;2086985;28;47210;-58
2022/07/04 01:09:56;;;;;;;;;0.60;0.60;;;;;23.07;40.76;101558.09;2086902;28;47929;-59
2022/07/04 01:10:57;;;;;;;;;0.00;0.00;;;;;23.07;41.08;101560.81;2087147;28;47395;-58
2022/07/04 01:11:57;;;;;;;;;0.50;0.50;;;;;23.07;41.40;101562.66;2087175;28;47588;-59
2022/07/04 01:12:58;;;;;;;;;0.75;0.75;;;;;23.06;41.33;101564.47;2087391;28;47322;-58
2022/07/04 01:13:58;;;;;;;;;0.75;0.75;;;;;23.06;40.61;101564.47;2087355;28;48091;-57
2022/07/04 01:14:59;;;;;;;;;1.25;1.00;;;;;23.06;41.10;101564.47;2086938;28;47795;-58
2022/07/04 01:15:59;;;;;;;;;0.00;0.00;;;;;23.05;41.40;101570.00;2087269;28;47494;-59
2022/07/04 01:17:00;;;;;;;;;0.75;0.75;;;;;23.05;41.00;101570.00;2087014;28;47952;-58
2022/07/04 01:18:00;;;;;;;;;0.00;0.00;;;;;23.05;41.06;101561.88;2094631;28;46603;-58
2022/07/04 01:19:01;;;;;;;;;1.00;0.00;;;;;23.04;41.09;101563.72;2094552;28;47622;-57
2022/07/04 01:20:02;;;;;;;;;0.00;0.00;;;;;23.04;40.97;101561.00;2086797;28;47269;-57
2022/07/04 01:21:03;;;;;;;;;0.00;0.00;;;;;23.04;41.02;101560.13;2086414;28;47448;-58
2022/07/04 01:22:06;;;;;;;;;1.00;1.00;;;;;23.03;41.46;101561.97;2085511;28;47628;-58
2022/07/04 01:23:06;;;;;;;;;1.25;0.25;;;;;23.01;41.19;101557.63;2085536;28;47733;-57
2022/07/04 01:24:11;;;;;;;;;1.00;1.00;;;;;23.00;41.01;101567.56;2086850;28;47523;-57
2022/07/04 01:25:14;;;;;;;;;0.00;0.00;;;;;22.99;41.04;101573.91;2086126;28;47424;-58
2022/07/04 01:26:14;;;;;;;;;2.25;0.75;;;;;22.97;41.27;101570.44;2086408;28;47974;-57
2022/07/04 01:27:15;;;;;;;;;0.00;0.00;;;;;22.95;41.11;101572.38;2086252;28;46066;-55
2022/07/04 01:28:20;;;;;;;;;1.00;1.00;;;;;22.92;41.30;101568.97;2085890;28;47956;-58
2022/07/04 01:29:21;;;;;;;;;2.40;1.40;;;;;22.85;41.36;101572.03;2087285;28;48028;-57
2022/07/04 01:30:21;;;;;;;;;0.00;0.00;;;;;22.80;40.97;101568.72;2087077;28;47444;-58
2022/07/04 01:31:22;;;;;;;;;0.33;0.33;;;;;22.77;41.45;101571.63;2087422;28;47151;-54
2022/07/04 01:32:22;;;;;;;;;1.00;0.00;;;;;22.73;41.64;101564.63;2086838;28;48082;-57
2022/07/04 01:33:22;;;;;;;;;0.50;0.50;;;;;22.71;41.44;101571.09;2087170;28;47529;-56
2022/07/04 01:34:23;;;;;;;;;1.00;1.00;;;;;22.67;41.80;101570.41;2088374;28;47752;-58
2022/07/04 01:35:23;;;;;;;;;1.25;1.25;;;;;22.68;41.82;101565.84;2088495;28;47906;-58
2022/07/04 01:36:24;;;;;;;;;0.33;0.33;;;;;22.66;41.62;101575.91;2088326;28;47337;-57
2022/07/04 01:37:24;;;;;;;;;0.67;0.67;;;;;22.64;41.63;101570.59;2095347;28;47805;-58
2022/07/04 01:38:25;;;;;;;;;1.00;0.00;;;;;22.61;41.85;101566.25;2092121;28;47516;-54
2022/07/04 01:39:26;;;;;;;;;2.50;1.00;;;;;22.61;41.75;101568.94;2088199;28;47711;-58
2022/07/04 01:40:27;;;;;;;;;0.40;0.40;;;;;22.59;41.62;101564.56;2087524;28;47553;-55
2022/07/04 01:41:33;;;;;;;;;1.25;1.00;;;;;22.57;41.96;101567.34;2088596;28;47423;-56
2022/07/04 01:42:33;;;;;;;;;0.25;0.25;;;;;22.57;41.79;101563.78;2095258;28;47611;-56
2022/07/04 01:43:35;;;;;;;;;0.25;0.25;;;;;22.56;42.08;101559.34;2095540;28;47847;-57
2022/07/04 01:44:36;;;;;;;;;1.40;1.40;;;;;22.57;41.60;101566.47;2088048;28;47645;-56
2022/07/04 01:45:39;;;;;;;;;0.00;0.00;;;;;22.56;41.82;101564.75;2096430;28;48162;-57
2022/07/04 01:46:39;;;;;;;;;0.50;0.50;;;;;22.53;41.94;101571.22;2096289;28;45646;-57
2022/07/04 01:47:40;;;;;;;;;1.00;1.00;;;;;22.52;41.49;101571.31;2103131;28;47846;-57
2022/07/04 01:48:41;;;;;;;;;1.00;1.00;;;;;22.50;41.86;101567.81;2088390;28;47614;-57
2022/07/04 01:49:41;;;;;;;;;0.67;0.67;;;;;22.46;42.03;101561.69;2088039;28;47966;-57
2022/07/04 01:50:42;;;;;;;;;2.00;2.00;;;;;22.44;42.03;101560.03;2088252;28;46934;-58
2022/07/04 01:51:50;;;;;;;;;3.00;2.00;;;;;22.44;41.71;101562.75;2088149;28;47523;-58
2022/07/04 01:52:50;;;;;;;;;1.25;1.25;;;;;22.44;41.62;101560.03;2087947;28;47969;-57
2022/07/04 01:53:51;;;;;;;;;2.33;1.00;;;;;22.44;41.85;101560.91;2078330;28;47685;-56
2022/07/04 01:54:51;;;;;;;;;2.00;2.00;;;;;22.45;41.74;101562.66;2089881;28;45594;-57
2022/07/04 01:55:52;;;;;;;;;3.33;2.33;;;;;22.45;42.09;101562.66;2088548;28;48820;-57
2022/07/04 01:56:53;;;;;;;;;1.00;1.00;;;;;22.46;41.70;101563.53;2087913;28;48080;-58
2022/07/04 01:57:53;;;;;;;;;1.75;1.75;;;;;22.46;42.07;101569.81;2090472;28;45803;-57
2022/07/04 01:58:54;;;;;;;;;2.00;1.33;;;;;22.46;41.86;101561.69;2096455;28;47154;-58
2022/07/04 02:01:31;;;;;;;;;1.75;1.75;;;;;22.48;42.05;101565.19;2089025;28;47687;-57
2022/07/04 02:02:31;;;;;;;;;2.40;2.40;;;;;22.49;41.69;101555.25;2087910;28;48091;-58
2022/07/04 02:03:32;;;;;;;;;2.00;2.00;;;;;22.48;41.87;101554.34;2087870;28;46855;-57
2022/07/04 02:04:32;;;;;;;;;2.25;2.25;;;;;22.49;41.48;101552.56;2087981;28;47567;-58
2022/07/04 02:05:33;;;;;;;;;1.00;1.00;;;;;22.49;42.02;101560.66;2087686;28;47807;-56
2022/07/04 02:06:34;;;;;;;;;1.50;1.50;;;;;22.50;41.94;101557.00;2088169;28;47140;-58
2022/07/04 02:07:35;;;;;;;;;2.25;0.50;;;;;22.51;41.77;101553.34;2087946;28;48023;-56
2022/07/04 02:09:54;;;;;;;;;1.00;1.00;;;;;22.51;41.62;101550.63;2088012;28;47668;-57
2022/07/04 02:10:54;;;;;;;;;0.50;0.50;;;;;22.52;41.95;101557.78;2088026;28;47377;-58
2022/07/04 02:13:14;;;;;;;;;2.00;2.00;;;;;22.53;41.83;101560.38;2088261;28;47735;-55
2022/07/04 02:14:14;;;;;;;;;5.00;3.00;;;;;22.54;41.77;101550.44;2088314;28;47392;-58
2022/07/04 02:15:14;;;;;;;;;1.00;1.00;;;;;22.54;41.85;101553.16;2088351;28;47668;-57
2022/07/04 02:16:15;;;;;;;;;0.00;0.00;;;;;22.54;41.47;101554.00;2087657;28;48031;-56
2022/07/04 02:17:15;;;;;;;;;1.75;1.75;;;;;22.54;41.47;101553.16;2087693;28;47525;-56
2022/07/04 02:18:15;;;;;;;;;1.00;1.00;;;;;22.54;41.79;101547.72;2094976;28;47891;-55
2022/07/04 02:19:16;;;;;;;;;3.75;2.25;;;;;22.53;41.88;101546.88;2095128;28;47818;-59
2022/07/04 02:20:17;;;;;;;;;0.00;0.00;;;;;22.54;41.82;101539.63;2088407;28;48031;-56
2022/07/04 02:21:18;;;;;;;;;2.00;2.00;;;;;22.53;41.80;101541.44;2088189;28;46381;-58
2022/07/04 02:22:18;;;;;;;;;1.25;1.25;;;;;22.53;41.53;101541.44;2087428;28;47668;-58
2022/07/04 02:23:19;;;;;;;;;1.50;1.50;;;;;22.53;41.91;101546.00;2088029;28;47368;-58
2022/07/04 02:24:19;;;;;;;;;3.25;1.00;;;;;22.54;42.11;101545.03;2087338;28;47108;-58
2022/07/04 02:25:20;;;;;;;;;1.00;1.00;;;;;22.53;41.82;101554.09;2087642;28;48081;-57
2022/07/04 02:26:20;;;;;;;;;2.00;2.00;;;;;22.52;42.21;101550.53;2088106;28;47645;-57
2022/07/04 02:27:21;;;;;;;;;2.00;0.75;;;;;22.52;41.76;101557.78;2088252;28;47981;-57
2022/07/04 02:28:21;;;;;;;;;1.00;1.00;;;;;22.47;42.08;101549.91;2088202;28;47761;-59
2022/07/04 02:29:21;;;;;;;;;1.67;1.67;;;;;22.46;41.88;101550.00;2087830;28;47905;-60
2022/07/04 02:30:23;;;;;;;;;2.00;2.00;;;;;22.42;42.04;101549.31;2083905;28;47341;-59
2022/07/04 02:31:23;;;;;;;;;1.50;0.25;;;;;22.40;41.94;101545.84;2079659;28;47536;-60
2022/07/04 02:32:24;;;;;;;;;1.00;1.00;;;;;22.38;41.84;101555.88;2078831;28;47294;-58
2022/07/04 02:33:24;;;;;;;;;0.33;0.33;;;;;22.36;41.85;101548.78;2079527;28;47382;-62
2022/07/04 02:34:25;;;;;;;;;1.00;1.00;;;;;22.32;41.88;101548.97;2079820;28;47707;-60
2022/07/04 02:35:26;;;;;;;;;1.00;1.00;;;;;22.31;42.29;101547.22;2079801;28;47373;-58
2022/07/04 02:36:26;;;;;;;;;1.00;1.00;;;;;22.31;42.30;101554.47;2078818;28;47502;-58
2022/07/04 02:37:26;;;;;;;;;1.00;1.00;;;;;22.29;42.20;101545.56;2078985;28;47038;-58
2022/07/04 02:38:27;;;;;;;;;1.00;1.00;;;;;22.28;42.24;101549.25;2079539;28;47294;-58
2022/07/04 02:39:27;;;;;;;;;1.00;1.00;;;;;22.25;41.91;101552.13;2079865;28;47431;-57
2022/07/04 02:40:27;;;;;;;;;1.00;1.00;;;;;22.23;42.50;101554.03;2087384;28;47266;-59
2022/07/04 02:41:28;;;;;;;;;2.00;1.00;;;;;22.21;42.42;101562.22;2087240;28;47654;-56
2022/07/04 02:42:33;;;;;;;;;0.00;0.00;;;;;22.21;42.04;101555.94;2087546;28;47771;-57
2022/07/04 02:43:33;;;;;;;;;0.00;0.00;;;;;22.19;42.25;101557.88;2088205;28;47401;-56
2022/07/04 02:44:34;;;;;;;;;1.00;1.00;;;;;22.16;42.05;101549.94;2085824;28;47946;-55
2022/07/04 02:45:34;;;;;;;;;1.00;1.00;;;;;22.13;42.43;101552.84;2086664;28;47120;-59
2022/07/04 02:46:35;;;;;;;;;1.33;1.33;;;;;22.09;42.28;101554.81;2088082;28;47508;-55
2022/07/04 02:47:35;;;;;;;;;0.00;0.00;;;;;22.06;42.69;101554.13;2088245;28;47781;-58
2022/07/04 02:48:37;;;;;;;;;1.25;0.00;;;;;22.03;42.37;101558.72;2087721;28;46141;-57
2022/07/04 02:49:37;;;;;;;;;0.20;0.20;;;;;22.02;42.63;101561.50;2087797;28;47942;-57
2022/07/04 02:50:37;;;;;;;;;1.00;0.00;;;;;22.01;42.89;101560.63;2088057;28;47503;-56
2022/07/04 02:51:38;;;;;;;;;0.00;0.00;;;;;21.99;42.77;101561.69;2087817;28;47988;-56
2022/07/04 02:52:38;;;;;;;;;3.00;0.25;;;;;21.97;42.62;101567.16;2088100;28;48066;-56
2022/07/04 02:53:39;;;;;;;;;0.67;0.67;;;;;21.97;42.68;101560.88;2087576;28;47638;-58
2022/07/04 02:54:39;;;;;;;;;1.00;1.00;;;;;21.98;42.74;101559.94;2087966;28;47879;-56
2022/07/04 02:55:40;;;;;;;;;0.00;0.00;;;;;22.00;42.94;101558.91;2079933;28;47337;-56
2022/07/04 02:56:40;;;;;;;;;1.00;1.00;;;;;22.01;42.67;101557.06;2087601;28;47786;-57
2022/07/04 02:57:40;;;;;;;;;0.25;0.25;;;;;22.02;43.23;101558.81;2087810;28;47462;-58
2022/07/04 02:58:41;;;;;;;;;0.00;0.00;;;;;22.03;42.77;101557.84;2069990;28;46094;-59
2022/07/04 02:59:41;;;;;;;;;0.00;0.00;;;;;22.04;42.84;101567.69;2072181;28;47829;-58
2022/07/04 03:00:41;;;;;;;;;0.25;0.25;;;;;22.03;43.21;101561.41;2090261;28;47834;-55
2022/07/04 03:01:42;;;;;;;;;1.00;1.00;;;;;22.03;42.91;101566.81;2087548;28;47623;-57
2022/07/04 03:02:42;;;;;;;;;1.00;1.00;;;;;22.04;42.98;101565.84;2086975;28;47504;-57
2022/07/04 03:03:43;;;;;;;;;0.00;0.00;;;;;22.04;43.12;101565.84;2086033;28;47872;-57
2022/07/04 03:04:43;;;;;;;;;3.25;1.25;;;;;22.04;43.17;101565.84;2087644;28;47470;-58
2022/07/04 03:05:43;;;;;;;;;0.25;0.25;;;;;22.03;42.62;101569.53;2087481;28;47946;-58
2022/07/04 03:06:44;;;;;;;;;0.00;0.00;;;;;22.04;43.17;101565.84;2094660;28;46671;-55
2022/07/04 03:07:44;;;;;;;;;0.00;0.00;;;;;22.05;43.07;101564.03;2094587;28;47818;-58
2022/07/04 03:08:45;;;;;;;;;0.75;0.75;;;;;22.05;43.24;101561.31;2087757;28;47637;-58
2022/07/04 03:09:45;;;;;;;;;0.25;0.25;;;;;22.06;43.16;101570.34;2087421;28;47954;-58
2022/07/04 03:10:46;;;;;;;;;0.67;0.67;;;;;22.05;43.04;101574.84;2087549;28;47863;-57
2022/07/04 03:11:46;;;;;;;;;23.50;23.50;;;;;22.03;43.22;101565.94;2087535;28;48078;-60
2022/07/04 03:12:46;;;;;;;;;10.50;9.50;;;;;22.03;42.79;101571.34;2087548;28;47732;-60
2022/07/04 03:13:47;;;;;;;;;18.25;17.75;;;;;22.03;42.81;101568.66;2087306;28;47664;-57
2022/07/04 03:14:47;;;;;;;;;3.00;3.00;;;;;22.03;43.33;101576.75;2087714;28;47320;-57
2022/07/04 03:15:48;;;;;;;;;1.00;1.00;;;;;22.03;42.62;101568.66;2084737;28;47299;-58
2022/07/04 03:16:48;;;;;;;;;1.00;1.00;;;;;22.03;42.62;101572.22;2079345;28;47595;-58
2022/07/04 03:17:49;;;;;;;;;0.67;0.33;;;;;22.04;42.95;101565.00;2086926;28;47360;-56
2022/07/04 03:18:49;;;;;;;;;1.00;1.00;;;;;22.05;43.31;101572.13;2087247;28;48011;-58
2022/07/04 03:19:49;;;;;;;;;0.67;0.67;;;;;22.06;42.87;101571.22;2087804;28;47230;-58
2022/07/04 03:20:50;;;;;;;;;0.67;0.67;;;;;22.07;43.12;101570.25;2087989;28;47957;-57
2022/07/04 03:21:50;;;;;;;;;1.67;0.33;;;;;22.06;42.54;101578.44;2087635;28;47319;-58
2022/07/04 03:22:51;;;;;;;;;0.33;0.33;;;;;22.03;43.10;101577.63;2086816;28;47688;-55
2022/07/04 03:23:57;;;;;;;;;0.00;0.00;;;;;22.01;42.65;101581.38;2086210;28;47330;-56
2022/07/04 03:24:58;;;;;;;;;0.00;0.00;;;;;21.97;42.83;101579.78;2093736;28;47568;-57
2022/07/04 03:25:59;;;;;;;;;1.00;1.00;;;;;21.94;42.79;101577.25;2087478;28;47636;-58
2022/07/04 03:26:59;;;;;;;;;0.00;0.00;;;;;21.90;43.01;101583.81;2087263;28;46934;-58
2022/07/04 03:28:00;;;;;;;;;1.00;1.00;;;;;21.88;43.35;101583.03;2087739;28;47635;-56
2022/07/04 03:29:01;;;;;;;;;1.00;1.00;;;;;21.86;43.09;101580.41;2087446;28;46919;-57
2022/07/04 03:30:02;;;;;;;;;0.75;0.75;;;;;21.85;43.39;101581.38;2087549;28;45673;-57
2022/07/04 03:31:03;;;;;;;;;0.50;0.50;;;;;21.86;43.45;101591.22;2087383;28;47347;-56
2022/07/04 03:32:03;;;;;;;;;0.00;0.00;;;;;21.86;43.34;101575.00;2086697;28;47810;-58
2022/07/04 03:33:04;;;;;;;;;2.00;2.00;;;;;21.87;43.58;101584.00;2087294;28;47426;-57
2022/07/04 03:34:04;;;;;;;;;0.00;0.00;;;;;21.87;43.44;101584.00;2087373;28;47258;-58
2022/07/04 03:35:05;;;;;;;;;0.33;0.33;;;;;21.87;43.24;101576.75;2085848;28;45615;-57
2022/07/04 03:36:06;;;;;;;;;1.00;1.00;;;;;21.88;43.05;101581.19;2069815;28;47919;-56
2022/07/04 03:37:06;;;;;;;;;1.33;1.33;;;;;21.90;43.34;101578.41;2078480;28;47343;-57
2022/07/04 03:38:06;;;;;;;;;0.00;0.00;;;;;21.91;43.51;101577.44;2089282;28;47227;-57
2022/07/04 03:39:07;;;;;;;;;1.00;1.00;;;;;21.91;43.65;101586.41;2095398;28;47585;-56
2022/07/04 03:40:08;;;;;;;;;0.00;0.00;;;;;21.93;43.64;101578.22;2088595;28;48005;-58
2022/07/04 03:41:08;;;;;;;;;0.25;0.25;;;;;21.93;43.39;101587.19;2087240;28;48539;-56
2022/07/04 03:42:09;;;;;;;;;0.67;0.67;;;;;21.94;43.61;101579.97;2087623;28;47294;-59
2022/07/04 03:43:09;;;;;;;;;0.00;0.00;;;;;21.94;43.04;101582.66;2087293;28;47722;-58
2022/07/04 03:44:09;;;;;;;;;0.00;0.00;;;;;21.94;43.46;101585.38;2087644;28;47984;-56
2022/07/04 03:45:10;;;;;;;;;0.00;0.00;;;;;21.93;43.24;101579.09;2087134;28;47673;-59
2022/07/04 03:46:11;;;;;;;;;1.00;1.00;;;;;21.93;43.20;101584.50;2087438;28;47733;-56
2022/07/04 03:47:11;;;;;;;;;1.33;1.33;;;;;21.93;43.28;101581.81;2087344;28;47518;-56
2022/07/04 03:48:11;;;;;;;;;1.00;1.00;;;;;21.93;42.98;101579.09;2087502;28;47693;-57
2022/07/04 03:49:12;;;;;;;;;1.00;1.00;;;;;21.94;43.25;101574.56;2087236;28;47770;-55
2022/07/04 03:50:12;;;;;;;;;1.00;0.00;;;;;21.95;43.25;101576.31;2087406;28;47778;-57
2022/07/04 03:51:13;;;;;;;;;0.33;0.33;;;;;21.96;43.08;101569.94;2087436;28;47158;-56
2022/07/04 03:52:13;;;;;;;;;2.00;2.00;;;;;21.96;43.28;101573.50;2087445;28;47886;-58
2022/07/04 03:53:15;;;;;;;;;1.00;1.00;;;;;21.96;43.65;101569.94;2086743;28;47623;-58
2022/07/04 03:54:16;;;;;;;;;0.25;0.00;;;;;21.95;43.55;101573.59;2078882;28;45716;-54
2022/07/04 03:55:16;;;;;;;;;1.67;1.67;;;;;21.94;43.10;101572.72;2080705;28;47300;-57
2022/07/04 03:56:17;;;;;;;;;1.00;1.00;;;;;21.95;43.67;101573.59;2083947;28;47604;-58
2022/07/04 03:57:17;;;;;;;;;0.67;0.67;;;;;21.93;43.66;101573.69;2088125;28;47379;-56
2022/07/04 03:58:18;;;;;;;;;1.00;1.00;;;;;21.95;43.34;101563.66;2089598;28;47418;-56
2022/07/04 03:59:18;;;;;;;;;0.00;0.00;;;;;21.96;43.31;101573.50;2088841;28;47396;-57
2022/07/04 04:00:18;;;;;;;;;2.33;2.00;;;;;21.96;43.44;101570.81;2078822;28;46746;-57
2022/07/04 04:01:19;;;;;;;;;0.67;0.67;;;;;21.96;43.59;101565.41;2089882;28;47210;-57
2022/07/04 04:02:19;;;;;;;;;1.00;1.00;;;;;21.97;43.22;101575.25;2086798;28;47674;-57
2022/07/04 04:05:57;;;;;;;;;2.20;2.20;;;;;21.96;43.48;101573.50;2088181;28;47372;-58
2022/07/04 04:06:58;;;;;;;;;1.50;1.00;;;;;21.95;43.47;101574.47;2087496;28;47350;-56
2022/07/04 04:08:00;;;;;;;;;3.33;2.67;;;;;21.95;43.54;101582.59;2086921;28;48048;-57
2022/07/04 04:09:01;;;;;;;;;3.50;2.75;;;;;21.95;43.52;101577.19;2086195;28;47774;-57
2022/07/04 04:10:01;;;;;;;;;4.00;4.00;;;;;21.96;43.50;101575.34;2086885;28;47538;-57
2022/07/04 04:11:02;;;;;;;;;2.25;2.25;;;;;21.97;43.64;101579.78;2086599;28;47697;-56
2022/07/04 04:12:02;;;;;;;;;4.00;4.00;;;;;21.97;43.25;101579.78;2078448;28;47273;-58
2022/07/04 04:13:03;;;;;;;;;2.67;2.67;;;;;21.95;43.68;101574.47;2086553;28;47272;-59
2022/07/04 04:14:03;;;;;;;;;3.50;3.50;;;;;21.96;43.44;101576.22;2087212;28;47643;-58
2022/07/04 04:15:04;;;;;;;;;4.00;3.00;;;;;21.97;43.52;101582.50;2087469;28;47890;-57
2022/07/04 04:16:05;;;;;;;;;2.50;2.50;;;;;21.97;43.74;101577.09;2088520;28;47518;-55
2022/07/04 04:17:05;;;;;;;;;2.33;2.33;;;;;21.97;43.51;101582.50;2087568;28;47680;-54
2022/07/04 04:18:05;;;;;;;;;4.00;2.33;;;;;21.97;43.59;101588.78;2087138;28;47366;-57
2022/07/04 04:19:06;;;;;;;;;4.67;3.00;;;;;21.95;43.71;101582.59;2087076;28;46877;-58
2022/07/04 04:20:08;;;;;;;;;5.25;4.00;;;;;21.93;43.84;101587.19;2087584;28;47897;-57
2022/07/04 04:21:08;;;;;;;;;3.60;3.60;;;;;21.90;43.54;101583.81;2086433;28;47563;-56
2022/07/04 04:22:09;;;;;;;;;2.00;2.00;;;;;21.88;43.33;101592.00;2085137;28;48015;-55
2022/07/04 04:23:09;;;;;;;;;3.50;3.00;;;;;21.86;43.24;101582.25;2085393;28;47569;-57
2022/07/04 04:24:10;;;;;;;;;5.00;5.00;;;;;21.84;43.70;101594.94;2086839;28;47428;-58
2022/07/04 04:25:10;;;;;;;;;2.75;2.75;;;;;21.82;43.70;101595.03;2086800;28;48083;-57
2022/07/04 04:26:11;;;;;;;;;3.50;2.25;;;;;21.81;43.68;101600.50;2086639;28;47402;-55
2022/07/04 04:27:12;;;;;;;;;2.50;2.50;;;;;21.77;43.50;101598.94;2086253;28;47522;-57
2022/07/04 04:28:12;;;;;;;;;2.00;2.00;;;;;21.76;44.03;101598.06;2086731;28;47469;-56
2022/07/04 04:29:13;;;;;;;;;5.00;5.00;;;;;21.73;44.16;101598.25;2087645;28;47421;-57
2022/07/04 04:30:13;;;;;;;;;2.75;2.75;;;;;21.70;43.54;101593.84;2086885;28;47466;-57
2022/07/04 04:31:14;;;;;;;;;3.00;3.00;;;;;21.68;43.61;101600.31;2093866;28;47631;-55
2022/07/04 04:32:14;;;;;;;;;5.00;4.00;;;;;21.66;44.17;101599.53;2093974;28;47819;-57
2022/07/04 04:33:15;;;;;;;;;3.00;3.00;;;;;21.63;43.80;101595.16;2087026;28;47550;-58
2022/07/04 04:34:15;;;;;;;;;2.00;2.00;;;;;21.62;44.32;101603.34;2087379;28;47268;-57
2022/07/04 04:35:16;;;;;;;;;5.50;3.75;;;;;21.59;43.82;101596.25;2086921;28;47424;-57
2022/07/04 04:36:16;;;;;;;;;1.00;1.00;;;;;21.56;44.17;101601.84;2087046;28;47937;-58
2022/07/04 04:37:17;;;;;;;;;3.67;2.33;;;;;21.54;43.87;101600.19;2085808;28;47535;-55
2022/07/04 04:38:17;;;;;;;;;3.00;2.00;;;;;21.52;44.53;101599.41;2086815;28;47895;-57
2022/07/04 04:39:17;;;;;;;;;4.00;4.00;;;;;21.47;44.06;101599.66;2087317;28;47229;-56
2022/07/04 04:40:18;;;;;;;;;2.00;2.00;;;;;21.43;44.13;101588.13;2086946;28;47131;-56
2022/07/04 04:41:18;;;;;;;;;3.00;3.00;;;;;21.41;44.29;101592.72;2087419;28;47563;-57
2022/07/04 04:42:19;;;;;;;;;2.25;2.00;;;;;21.38;44.71;101587.50;2087092;28;47594;-56
2022/07/04 04:43:19;;;;;;;;;2.00;1.33;;;;;21.37;44.26;101591.16;2086925;28;47469;-58
2022/07/04 04:44:20;;;;;;;;;2.25;2.25;;;;;21.38;44.76;101592.03;2085722;28;45624;-56
2022/07/04 04:45:20;;;;;;;;;1.75;1.75;;;;;21.36;44.68;101589.41;2085341;28;47581;-57
2022/07/04 04:46:21;;;;;;;;;1.00;1.00;;;;;21.35;44.79;101595.78;2087003;28;47836;-55
2022/07/04 04:47:21;;;;;;;;;2.67;2.67;;;;;21.35;44.82;101594.91;2086978;28;47579;-57
2022/07/04 04:48:22;;;;;;;;;1.00;1.00;;;;;21.33;44.38;101592.25;2087115;28;47352;-55